sensor_id;sensor_type;location;lat;lon;timestamp;pressure;altitude;pressure_sealevel;temperature;humidity
42001;BME280;27689;48.390;10.856;2023-04-29T00:00:15;95818.88;;;10.02;100.00
42001;BME280;27689;48.390;10.856;2023-04-29T00:02:59;95837.06;;;10.03;100.00
42001;BME280;27689;48.390;10.856;2023-04-29T00:05:44;95823.81;;;10.05;100.00
42001;BME280;27689;48.390;10.856;2023-04-29T00:08:29;95815.44;;;10.01;100.00
42001;BME280;27689;48.390;10.856;2023-04-29T00:11:13;95813.41;;;9.95;100.00
42001;BME280;27689;48.390;10.856;2023-04-29T00:13:56;95813.41;;;9.95;100.00
42001;BME280;27689;48.390;10.856;2023-04-29T00:16:40;95804.91;;;9.93;100.00
42001;BME280;27689;48.390;10.856;2023-04-29T00:19:25;95801.34;;;9.94;100.00
42001;BME280;27689;48.390;10.856;2023-04-29T00:22:08;95811.47;;;9.97;100.00
42001;BME280;27689;48.390;10.856;2023-04-29T00:24:52;95809.84;;;9.96;100.00
42001;BME280;27689;48.390;10.856;2023-04-29T00:27:36;95801.34;;;9.94;100.00
42001;BME280;27689;48.390;10.856;2023-04-29T00:30:22;95809.34;;;9.93;100.00
42001;BME280;27689;48.390;10.856;2023-04-29T00:33:06;95809.34;;;9.93;100.00
42001;BME280;27689;48.390;10.856;2023-04-29T00:35:50;95799.84;;;9.92;100.00
42001;BME280;27689;48.390;10.856;2023-04-29T00:38:34;95807.69;;;9.92;100.00
42001;BME280;27689;48.390;10.856;2023-04-29T00:41:18;95805.22;;;9.90;100.00
42001;BME280;27689;48.390;10.856;2023-04-29T00:44:02;95805.81;;;9.84;100.00
42001;BME280;27689;48.390;10.856;2023-04-29T00:46:46;95790.72;;;9.78;100.00
42001;BME280;27689;48.390;10.856;2023-04-29T00:49:30;95805.50;;;9.87;100.00
42001;BME280;27689;48.390;10.856;2023-04-29T00:52:15;95805.88;;;9.92;100.00
42001;BME280;27689;48.390;10.856;2023-04-29T00:55:01;95812.88;;;10.09;100.00
42001;BME280;27689;48.390;10.856;2023-04-29T00:57:45;95800.41;;;10.39;100.00
42001;BME280;27689;48.390;10.856;2023-04-29T01:00:31;95804.84;;;10.72;100.00
42001;BME280;27689;48.390;10.856;2023-04-29T01:03:15;95802.13;;;10.82;100.00
42001;BME280;27689;48.390;10.856;2023-04-29T01:06:16;95802.53;;;10.95;100.00
42001;BME280;27689;48.390;10.856;2023-04-29T01:12:37;95806.06;;;11.12;100.00
42001;BME280;27689;48.390;10.856;2023-04-29T01:15:30;95804.72;;;11.16;100.00
42001;BME280;27689;48.390;10.856;2023-04-29T01:18:27;95804.72;;;11.16;100.00
42001;BME280;27689;48.390;10.856;2023-04-29T01:21:12;95813.63;;;11.23;100.00
42001;BME280;27689;48.390;10.856;2023-04-29T01:23:56;95814.13;;;11.26;100.00
42001;BME280;27689;48.390;10.856;2023-04-29T01:26:47;95813.78;;;11.29;100.00
42001;BME280;27689;48.390;10.856;2023-04-29T01:29:39;95809.53;;;11.28;100.00
42001;BME280;27689;48.390;10.856;2023-04-29T01:32:52;95811.03;;;11.31;100.00
42001;BME280;27689;48.390;10.856;2023-04-29T01:39:32;95810.34;;;11.29;100.00
42001;BME280;27689;48.390;10.856;2023-04-29T01:45:14;95808.41;;;11.31;100.00
42001;BME280;27689;48.390;10.856;2023-04-29T01:48:00;95805.09;;;11.29;100.00
42001;BME280;27689;48.390;10.856;2023-04-29T01:50:45;95810.03;;;11.32;100.00
42001;BME280;27689;48.390;10.856;2023-04-29T01:53:30;95807.09;;;11.27;100.00
42001;BME280;27689;48.390;10.856;2023-04-29T01:56:15;95810.69;;;11.26;100.00
42001;BME280;27689;48.390;10.856;2023-04-29T01:58:59;95802.47;;;11.29;100.00
42001;BME280;27689;48.390;10.856;2023-04-29T02:01:43;95811.16;;;11.29;100.00
42001;BME280;27689;48.390;10.856;2023-04-29T02:04:27;95804.28;;;11.28;100.00
42001;BME280;27689;48.390;10.856;2023-04-29T02:07:11;95809.72;;;11.27;100.00
42001;BME280;27689;48.390;10.856;2023-04-29T02:09:55;95800.06;;;11.27;100.00
42001;BME280;27689;48.390;10.856;2023-04-29T02:12:39;95807.41;;;11.32;100.00
42001;BME280;27689;48.390;10.856;2023-04-29T02:15:26;95802.81;;;11.26;100.00
42001;BME280;27689;48.390;10.856;2023-04-29T02:18:11;95800.19;;;11.26;100.00
42001;BME280;27689;48.390;10.856;2023-04-29T02:20:59;95802.66;;;11.27;100.00
42001;BME280;27689;48.390;10.856;2023-04-29T02:23:44;95793.63;;;11.22;100.00
42001;BME280;27689;48.390;10.856;2023-04-29T02:26:28;95800.97;;;11.18;100.00
42001;BME280;27689;48.390;10.856;2023-04-29T02:29:12;95805.75;;;11.23;100.00
42001;BME280;27689;48.390;10.856;2023-04-29T02:31:56;95806.28;;;11.26;100.00
42001;BME280;27689;48.390;10.856;2023-04-29T02:34:40;95807.03;;;11.19;100.00
42001;BME280;27689;48.390;10.856;2023-04-29T02:37:24;95816.56;;;11.20;100.00
42001;BME280;27689;48.390;10.856;2023-04-29T02:40:09;95810.78;;;11.16;100.00
42001;BME280;27689;48.390;10.856;2023-04-29T02:42:53;95817.69;;;11.17;100.00
42001;BME280;27689;48.390;10.856;2023-04-29T02:45:38;95816.34;;;11.13;100.00
42001;BME280;27689;48.390;10.856;2023-04-29T02:48:22;95809.66;;;11.11;100.00
42001;BME280;27689;48.390;10.856;2023-04-29T02:51:06;95818.34;;;11.11;100.00
42001;BME280;27689;48.390;10.856;2023-04-29T02:53:50;95812.13;;;11.12;100.00
42001;BME280;27689;48.390;10.856;2023-04-29T02:56:35;95824.22;;;11.13;100.00
42001;BME280;27689;48.390;10.856;2023-04-29T02:59:19;95816.69;;;11.10;100.00
42001;BME280;27689;48.390;10.856;2023-04-29T03:02:03;95805.88;;;11.13;100.00
42001;BME280;27689;48.390;10.856;2023-04-29T03:04:47;95809.66;;;11.11;100.00
42001;BME280;27689;48.390;10.856;2023-04-29T03:07:31;95819.50;;;11.17;100.00
42001;BME280;27689;48.390;10.856;2023-04-29T03:10:15;95809.66;;;11.11;100.00
42001;BME280;27689;48.390;10.856;2023-04-29T03:13:01;95820.47;;;11.16;100.00
42001;BME280;27689;48.390;10.856;2023-04-29T03:15:45;95822.41;;;11.14;100.00
42001;BME280;27689;48.390;10.856;2023-04-29T03:18:29;95820.47;;;11.16;100.00
42001;BME280;27689;48.390;10.856;2023-04-29T03:21:13;95816.53;;;11.12;100.00
42001;BME280;27689;48.390;10.856;2023-04-29T03:23:57;95817.84;;;11.16;100.00
42001;BME280;27689;48.390;10.856;2023-04-29T03:26:41;95813.56;;;11.15;100.00
42001;BME280;27689;48.390;10.856;2023-04-29T03:29:29;95812.94;;;11.13;100.00
42001;BME280;27689;48.390;10.856;2023-04-29T03:32:14;95812.13;;;11.12;100.00
42001;BME280;27689;48.390;10.856;2023-04-29T03:34:57;95817.16;;;11.14;100.00
42001;BME280;27689;48.390;10.856;2023-04-29T03:37:41;95811.44;;;11.10;100.00
42001;BME280;27689;48.390;10.856;2023-04-29T03:40:27;95814.06;;;11.10;100.00
42001;BME280;27689;48.390;10.856;2023-04-29T03:43:11;95804.72;;;11.08;100.00
42001;BME280;27689;48.390;10.856;2023-04-29T03:45:56;95818.78;;;11.07;100.00
42001;BME280;27689;48.390;10.856;2023-04-29T03:48:41;95811.59;;;11.09;100.00
42001;BME280;27689;48.390;10.856;2023-04-29T03:51:25;95815.22;;;11.16;100.00
42001;BME280;27689;48.390;10.856;2023-04-29T03:54:10;95819.53;;;11.25;100.00
42001;BME280;27689;48.390;10.856;2023-04-29T03:56:54;95817.09;;;11.31;100.00
42001;BME280;27689;48.390;10.856;2023-04-29T03:59:38;95819.88;;;11.30;100.00
42001;BME280;27689;48.390;10.856;2023-04-29T04:02:22;95817.59;;;11.35;100.00
42001;BME280;27689;48.390;10.856;2023-04-29T04:05:07;95819.59;;;11.41;100.00
42001;BME280;27689;48.390;10.856;2023-04-29T04:07:51;95822.03;;;11.43;100.00
42001;BME280;27689;48.390;10.856;2023-04-29T04:10:35;95824.69;;;11.51;100.00
42001;BME280;27689;48.390;10.856;2023-04-29T04:13:19;95825.31;;;11.45;100.00
42001;BME280;27689;48.390;10.856;2023-04-29T04:16:03;95826.66;;;11.49;100.00
42001;BME280;27689;48.390;10.856;2023-04-29T04:18:47;95839.31;;;11.53;100.00
42001;BME280;27689;48.390;10.856;2023-04-29T04:21:31;95838.78;;;11.50;100.00
42001;BME280;27689;48.390;10.856;2023-04-29T04:24:15;95841.25;;;11.51;100.00
42001;BME280;27689;48.390;10.856;2023-04-29T04:26:59;95838.16;;;11.56;100.00
42001;BME280;27689;48.390;10.856;2023-04-29T04:29:43;95847.34;;;11.52;100.00
42001;BME280;27689;48.390;10.856;2023-04-29T04:32:27;95841.94;;;11.53;100.00
42001;BME280;27689;48.390;10.856;2023-04-29T04:35:12;95848.31;;;11.59;100.00
42001;BME280;27689;48.390;10.856;2023-04-29T04:37:56;95845.91;;;11.65;100.00
42001;BME280;27689;48.390;10.856;2023-04-29T04:40:40;95844.56;;;11.61;100.00
42001;BME280;27689;48.390;10.856;2023-04-29T04:43:25;95851.44;;;11.62;100.00
42001;BME280;27689;48.390;10.856;2023-04-29T04:46:13;95843.59;;;11.62;100.00
42001;BME280;27689;48.390;10.856;2023-04-29T04:48:58;95841.00;;;11.71;100.00
42001;BME280;27689;48.390;10.856;2023-04-29T04:51:43;95846.72;;;11.66;100.00
42001;BME280;27689;48.390;10.856;2023-04-29T04:54:28;95851.50;;;11.71;100.00
42001;BME280;27689;48.390;10.856;2023-04-29T04:57:12;95853.13;;;11.72;100.00
42001;BME280;27689;48.390;10.856;2023-04-29T04:59:56;95856.59;;;11.72;100.00
42001;BME280;27689;48.390;10.856;2023-04-29T05:02:40;95853.34;;;11.78;100.00
42001;BME280;27689;48.390;10.856;2023-04-29T05:05:24;95851.88;;;11.84;100.00
42001;BME280;27689;48.390;10.856;2023-04-29T05:08:08;95864.19;;;11.91;100.00
42001;BME280;27689;48.390;10.856;2023-04-29T05:10:52;95866.50;;;11.94;100.00
42001;BME280;27689;48.390;10.856;2023-04-29T05:13:37;95870.44;;;11.98;100.00
42001;BME280;27689;48.390;10.856;2023-04-29T05:16:21;95865.50;;;12.04;100.00
42001;BME280;27689;48.390;10.856;2023-04-29T05:19:05;95877.03;;;12.11;100.00
42001;BME280;27689;48.390;10.856;2023-04-29T05:21:49;95879.19;;;12.15;100.00
42001;BME280;27689;48.390;10.856;2023-04-29T05:24:33;95872.59;;;12.11;100.00
42001;BME280;27689;48.390;10.856;2023-04-29T05:27:17;95888.03;;;12.22;100.00
42001;BME280;27689;48.390;10.856;2023-04-29T05:30:02;95884.44;;;12.23;100.00
42001;BME280;27689;48.390;10.856;2023-04-29T05:32:46;95876.38;;;12.25;100.00
42001;BME280;27689;48.390;10.856;2023-04-29T05:35:31;95888.38;;;12.27;100.00
42001;BME280;27689;48.390;10.856;2023-04-29T05:38:15;95881.16;;;12.29;100.00
42001;BME280;27689;48.390;10.856;2023-04-29T05:40:59;95883.94;;;12.36;100.00
42001;BME280;27689;48.390;10.856;2023-04-29T05:43:44;95886.91;;;12.41;100.00
42001;BME280;27689;48.390;10.856;2023-04-29T05:46:28;95888.72;;;12.49;100.00
42001;BME280;27689;48.390;10.856;2023-04-29T05:49:12;95891.66;;;12.54;100.00
42001;BME280;27689;48.390;10.856;2023-04-29T05:51:56;95898.91;;;12.68;100.00
42001;BME280;27689;48.390;10.856;2023-04-29T05:54:40;95899.22;;;12.65;100.00
42001;BME280;27689;48.390;10.856;2023-04-29T05:57:24;95897.28;;;12.75;100.00
42001;BME280;27689;48.390;10.856;2023-04-29T06:00:09;95902.16;;;12.78;100.00
42001;BME280;27689;48.390;10.856;2023-04-29T06:02:53;95906.44;;;12.87;100.00
42001;BME280;27689;48.390;10.856;2023-04-29T06:05:37;95901.66;;;12.99;100.00
42001;BME280;27689;48.390;10.856;2023-04-29T06:08:21;95905.13;;;12.99;100.00
42001;BME280;27689;48.390;10.856;2023-04-29T06:11:05;95913.34;;;13.04;100.00
42001;BME280;27689;48.390;10.856;2023-04-29T06:13:49;95906.06;;;13.06;100.00
42001;BME280;27689;48.390;10.856;2023-04-29T06:16:34;95905.41;;;13.13;100.00
42001;BME280;27689;48.390;10.856;2023-04-29T06:19:18;95911.88;;;13.18;100.00
42001;BME280;27689;48.390;10.856;2023-04-29T06:22:02;95917.25;;;13.25;100.00
42001;BME280;27689;48.390;10.856;2023-04-29T06:24:46;95916.44;;;13.32;100.00
42001;BME280;27689;48.390;10.856;2023-04-29T06:27:32;95916.09;;;13.35;100.00
42001;BME280;27689;48.390;10.856;2023-04-29T06:30:16;95926.75;;;13.42;100.00
42001;BME280;27689;48.390;10.856;2023-04-29T06:33:00;95926.75;;;13.50;100.00
42001;BME280;27689;48.390;10.856;2023-04-29T06:35:44;95922.22;;;13.67;100.00
42001;BME280;27689;48.390;10.856;2023-04-29T06:38:29;95915.97;;;13.68;100.00
42001;BME280;27689;48.390;10.856;2023-04-29T06:41:13;95931.25;;;13.72;100.00
42001;BME280;27689;48.390;10.856;2023-04-29T06:43:57;95930.59;;;13.79;100.00
42001;BME280;27689;48.390;10.856;2023-04-29T06:46:41;95927.56;;;13.90;100.00
42001;BME280;27689;48.390;10.856;2023-04-29T06:49:25;95924.06;;;13.97;100.00
42001;BME280;27689;48.390;10.856;2023-04-29T06:52:09;95932.63;;;13.99;100.00
42001;BME280;27689;48.390;10.856;2023-04-29T06:54:53;95928.66;;;14.03;100.00
42001;BME280;27689;48.390;10.856;2023-04-29T06:57:38;95929.69;;;13.94;100.00
42001;BME280;27689;48.390;10.856;2023-04-29T07:00:22;95926.69;;;14.05;100.00
42001;BME280;27689;48.390;10.856;2023-04-29T07:03:05;95945.47;;;14.25;100.00
42001;BME280;27689;48.390;10.856;2023-04-29T07:05:49;95941.69;;;14.28;100.00
42001;BME280;27689;48.390;10.856;2023-04-29T07:08:33;95936.69;;;14.41;100.00
42001;BME280;27689;48.390;10.856;2023-04-29T07:11:17;95936.81;;;14.48;100.00
42001;BME280;27689;48.390;10.856;2023-04-29T07:14:02;95933.13;;;14.57;100.00
42001;BME280;27689;48.390;10.856;2023-04-29T07:16:46;95928.56;;;14.51;100.00
42001;BME280;27689;48.390;10.856;2023-04-29T07:19:30;95934.59;;;14.59;100.00
42001;BME280;27689;48.390;10.856;2023-04-29T07:22:14;95943.03;;;14.55;100.00
42001;BME280;27689;48.390;10.856;2023-04-29T07:24:58;95935.75;;;14.57;100.00
42001;BME280;27689;48.390;10.856;2023-04-29T07:27:42;95940.22;;;14.56;100.00
42001;BME280;27689;48.390;10.856;2023-04-29T07:30:26;95941.63;;;14.67;100.00
42001;BME280;27689;48.390;10.856;2023-04-29T07:33:11;95937.25;;;14.82;100.00
42001;BME280;27689;48.390;10.856;2023-04-29T07:35:55;95938.16;;;14.89;100.00
42001;BME280;27689;48.390;10.856;2023-04-29T07:38:39;95934.53;;;14.90;100.00
42001;BME280;27689;48.390;10.856;2023-04-29T07:41:23;95943.59;;;15.10;100.00
42001;BME280;27689;48.390;10.856;2023-04-29T07:44:07;95945.78;;;15.22;100.00
42001;BME280;27689;48.390;10.856;2023-04-29T07:46:51;95949.78;;;15.32;100.00
42001;BME280;27689;48.390;10.856;2023-04-29T07:49:34;95947.81;;;15.34;100.00
42001;BME280;27689;48.390;10.856;2023-04-29T07:52:18;95947.09;;;15.40;100.00
42001;BME280;27689;48.390;10.856;2023-04-29T07:55:02;95944.00;;;15.37;100.00
42001;BME280;27689;48.390;10.856;2023-04-29T07:57:47;95953.84;;;15.43;100.00
42001;BME280;27689;48.390;10.856;2023-04-29T08:00:31;95945.47;;;15.54;100.00
42001;BME280;27689;48.390;10.856;2023-04-29T08:03:16;95944.56;;;15.62;100.00
42001;BME280;27689;48.390;10.856;2023-04-29T08:06:03;95941.94;;;15.62;100.00
42001;BME280;27689;48.390;10.856;2023-04-29T08:08:48;95938.56;;;15.68;100.00
42001;BME280;27689;48.390;10.856;2023-04-29T08:11:32;95946.50;;;15.82;100.00
42001;BME280;27689;48.390;10.856;2023-04-29T08:14:16;95953.28;;;16.06;100.00
42001;BME280;27689;48.390;10.856;2023-04-29T08:17:00;95941.97;;;16.27;100.00
42001;BME280;27689;48.390;10.856;2023-04-29T08:19:44;95944.75;;;16.40;100.00
42001;BME280;27689;48.390;10.856;2023-04-29T08:22:28;95935.75;;;16.56;95.99
42001;BME280;27689;48.390;10.856;2023-04-29T08:25:13;95940.13;;;16.64;93.70
42001;BME280;27689;48.390;10.856;2023-04-29T08:27:57;95954.69;;;16.74;92.09
42001;BME280;27689;48.390;10.856;2023-04-29T08:30:41;95953.06;;;16.73;87.50
42001;BME280;27689;48.390;10.856;2023-04-29T08:33:25;95965.31;;;16.60;91.24
42001;BME280;27689;48.390;10.856;2023-04-29T08:36:09;95963.25;;;16.40;91.03
42001;BME280;27689;48.390;10.856;2023-04-29T08:38:54;95972.69;;;16.28;94.58
42001;BME280;27689;48.390;10.856;2023-04-29T08:41:39;95974.72;;;15.97;96.27
42001;BME280;27689;48.390;10.856;2023-04-29T08:44:24;95974.72;;;15.82;97.69
42001;BME280;27689;48.390;10.856;2023-04-29T08:47:09;95968.75;;;15.50;99.08
42001;BME280;27689;48.390;10.856;2023-04-29T08:49:54;95978.38;;;15.29;100.00
42001;BME280;27689;48.390;10.856;2023-04-29T08:52:38;95972.09;;;15.44;100.00
42001;BME280;27689;48.390;10.856;2023-04-29T08:55:22;95974.19;;;15.57;100.00
42001;BME280;27689;48.390;10.856;2023-04-29T08:58:06;95976.84;;;15.86;100.00
42001;BME280;27689;48.390;10.856;2023-04-29T09:00:51;95965.97;;;16.11;97.83
42001;BME280;27689;48.390;10.856;2023-04-29T09:03:47;95967.75;;;16.25;90.58
42001;BME280;27689;48.390;10.856;2023-04-29T09:06:35;95961.34;;;16.34;92.94
42001;BME280;27689;48.390;10.856;2023-04-29T09:09:20;95975.31;;;16.28;90.13
42001;BME280;27689;48.390;10.856;2023-04-29T09:12:04;95978.25;;;16.04;87.82
42001;BME280;27689;48.390;10.856;2023-04-29T09:14:48;95978.00;;;15.84;89.85
42001;BME280;27689;48.390;10.856;2023-04-29T09:23:07;95973.97;;;15.59;91.25
42001;BME280;27689;48.390;10.856;2023-04-29T09:25:55;95972.25;;;15.66;91.77
42001;BME280;27689;48.390;10.856;2023-04-29T09:28:40;95983.53;;;15.89;86.58
42001;BME280;27689;48.390;10.856;2023-04-29T09:31:26;95981.88;;;16.32;84.08
42001;BME280;27689;48.390;10.856;2023-04-29T09:34:11;95976.66;;;16.39;82.04
42001;BME280;27689;48.390;10.856;2023-04-29T09:36:56;95980.16;;;16.61;83.51
42001;BME280;27689;48.390;10.856;2023-04-29T09:39:41;95962.19;;;16.71;79.57
42001;BME280;27689;48.390;10.856;2023-04-29T09:42:25;95981.28;;;16.51;77.86
42001;BME280;27689;48.390;10.856;2023-04-29T09:45:09;95985.53;;;16.31;74.20
42001;BME280;27689;48.390;10.856;2023-04-29T09:48:01;95982.94;;;16.38;78.36
42001;BME280;27689;48.390;10.856;2023-04-29T09:50:59;95979.16;;;16.62;75.38
42001;BME280;27689;48.390;10.856;2023-04-29T09:53:46;95977.09;;;16.78;75.75
42001;BME280;27689;48.390;10.856;2023-04-29T09:56:47;95974.03;;;16.96;74.30
42001;BME280;27689;48.390;10.856;2023-04-29T09:59:33;95976.97;;;17.08;71.40
42001;BME280;27689;48.390;10.856;2023-04-29T10:02:18;95974.28;;;16.80;71.07
42001;BME280;27689;48.390;10.856;2023-04-29T10:05:02;95980.75;;;16.77;72.33
42001;BME280;27689;48.390;10.856;2023-04-29T10:07:47;95967.91;;;16.96;70.77
42001;BME280;27689;48.390;10.856;2023-04-29T10:10:32;95983.00;;;17.23;69.17
42001;BME280;27689;48.390;10.856;2023-04-29T10:13:17;95980.28;;;17.38;66.35
42001;BME280;27689;48.390;10.856;2023-04-29T10:18:53;95972.03;;;17.75;63.65
42001;BME280;27689;48.390;10.856;2023-04-29T10:21:39;95980.63;;;17.56;63.58
42001;BME280;27689;48.390;10.856;2023-04-29T10:24:24;95980.59;;;17.49;62.85
42001;BME280;27689;48.390;10.856;2023-04-29T10:27:09;95971.25;;;17.04;62.07
42001;BME280;27689;48.390;10.856;2023-04-29T10:29:55;95965.22;;;16.89;64.32
42001;BME280;27689;48.390;10.856;2023-04-29T10:32:41;95970.03;;;17.07;66.89
42001;BME280;27689;48.390;10.856;2023-04-29T10:35:26;95974.41;;;17.14;64.91
42001;BME280;27689;48.390;10.856;2023-04-29T10:38:16;95972.00;;;16.98;64.25
42001;BME280;27689;48.390;10.856;2023-04-29T10:41:08;95966.13;;;17.24;65.69
42001;BME280;27689;48.390;10.856;2023-04-29T10:43:54;95975.22;;;17.43;64.20
42001;BME280;27689;48.390;10.856;2023-04-29T10:46:38;95973.22;;;17.45;65.72
42001;BME280;27689;48.390;10.856;2023-04-29T10:49:22;95978.63;;;17.37;62.39
42001;BME280;27689;48.390;10.856;2023-04-29T10:52:06;95967.44;;;17.35;61.56
42001;BME280;27689;48.390;10.856;2023-04-29T10:55:03;95961.69;;;17.31;61.66
42001;BME280;27689;48.390;10.856;2023-04-29T10:57:47;95964.28;;;17.52;63.20
42001;BME280;27689;48.390;10.856;2023-04-29T11:00:33;95965.34;;;17.58;62.96
42001;BME280;27689;48.390;10.856;2023-04-29T11:03:47;95982.00;;;17.73;61.64
42001;BME280;27689;48.390;10.856;2023-04-29T11:09:18;95966.81;;;17.60;62.02
42001;BME280;27689;48.390;10.856;2023-04-29T11:12:04;95975.88;;;17.73;61.19
42001;BME280;27689;48.390;10.856;2023-04-29T11:14:50;95969.63;;;17.87;62.38
42001;BME280;27689;48.390;10.856;2023-04-29T11:17:35;95964.59;;;17.98;63.31
42001;BME280;27689;48.390;10.856;2023-04-29T11:20:21;95960.09;;;17.99;62.96
42001;BME280;27689;48.390;10.856;2023-04-29T11:23:05;95958.22;;;18.34;65.05
42001;BME280;27689;48.390;10.856;2023-04-29T11:25:49;95963.31;;;18.29;62.16
42001;BME280;27689;48.390;10.856;2023-04-29T11:28:34;95961.03;;;18.19;60.77
42001;BME280;27689;48.390;10.856;2023-04-29T11:31:18;95957.50;;;18.12;61.93
42001;BME280;27689;48.390;10.856;2023-04-29T11:34:03;95965.31;;;18.20;61.72
42001;BME280;27689;48.390;10.856;2023-04-29T11:36:47;95959.44;;;18.31;62.55
42001;BME280;27689;48.390;10.856;2023-04-29T11:39:34;95969.47;;;18.43;60.22
42001;BME280;27689;48.390;10.856;2023-04-29T11:42:20;95976.41;;;18.37;61.19
42001;BME280;27689;48.390;10.856;2023-04-29T11:45:04;95973.91;;;18.22;58.46
42001;BME280;27689;48.390;10.856;2023-04-29T11:47:49;95982.13;;;18.00;59.85
42001;BME280;27689;48.390;10.856;2023-04-29T11:50:33;95975.69;;;17.81;59.78
42001;BME280;27689;48.390;10.856;2023-04-29T11:53:20;95992.41;;;17.81;59.62
42001;BME280;27689;48.390;10.856;2023-04-29T11:56:05;95979.69;;;17.98;57.82
42001;BME280;27689;48.390;10.856;2023-04-29T11:58:49;95981.44;;;18.19;60.08
42001;BME280;27689;48.390;10.856;2023-04-29T12:01:34;95985.94;;;18.25;57.24
42001;BME280;27689;48.390;10.856;2023-04-29T12:04:18;95986.00;;;18.45;56.56
42001;BME280;27689;48.390;10.856;2023-04-29T12:07:02;95974.97;;;18.35;56.21
42001;BME280;27689;48.390;10.856;2023-04-29T12:09:46;95978.88;;;18.39;58.06
42001;BME280;27689;48.390;10.856;2023-04-29T12:12:30;95976.13;;;18.66;59.09
42001;BME280;27689;48.390;10.856;2023-04-29T12:15:19;95976.75;;;18.69;57.03
42001;BME280;27689;48.390;10.856;2023-04-29T12:18:04;95982.50;;;18.31;60.17
42001;BME280;27689;48.390;10.856;2023-04-29T12:20:49;95983.56;;;18.43;63.20
42001;BME280;27689;48.390;10.856;2023-04-29T12:23:34;95980.38;;;18.61;65.21
42001;BME280;27689;48.390;10.856;2023-04-29T12:26:19;95978.81;;;18.86;63.44
42001;BME280;27689;48.390;10.856;2023-04-29T12:29:09;95987.75;;;18.65;62.50
42001;BME280;27689;48.390;10.856;2023-04-29T12:31:54;95990.59;;;18.71;60.98
42001;BME280;27689;48.390;10.856;2023-04-29T12:34:39;95989.41;;;18.66;60.25
42001;BME280;27689;48.390;10.856;2023-04-29T12:37:23;95989.19;;;18.75;65.00
42001;BME280;27689;48.390;10.856;2023-04-29T12:40:12;95983.75;;;18.96;62.66
42001;BME280;27689;48.390;10.856;2023-04-29T12:43:05;95983.94;;;19.08;62.66
42001;BME280;27689;48.390;10.856;2023-04-29T12:45:53;95983.75;;;19.49;58.03
42001;BME280;27689;48.390;10.856;2023-04-29T12:48:39;95986.22;;;19.37;55.03
42001;BME280;27689;48.390;10.856;2023-04-29T12:51:24;95987.03;;;19.24;56.16
42001;BME280;27689;48.390;10.856;2023-04-29T12:54:09;95981.94;;;19.62;60.24
42001;BME280;27689;48.390;10.856;2023-04-29T12:56:54;95974.78;;;19.69;57.24
42001;BME280;27689;48.390;10.856;2023-04-29T12:59:39;95974.72;;;20.02;58.02
42001;BME280;27689;48.390;10.856;2023-04-29T13:02:23;95973.81;;;20.28;55.12
42001;BME280;27689;48.390;10.856;2023-04-29T13:05:08;95989.06;;;19.82;53.22
42001;BME280;27689;48.390;10.856;2023-04-29T13:07:52;95990.69;;;19.30;56.95
42001;BME280;27689;48.390;10.856;2023-04-29T13:10:37;95988.03;;;19.10;54.85
42001;BME280;27689;48.390;10.856;2023-04-29T13:13:21;95981.66;;;18.85;56.40
42001;BME280;27689;48.390;10.856;2023-04-29T13:16:05;95981.97;;;18.55;59.11
42001;BME280;27689;48.390;10.856;2023-04-29T13:18:49;95983.88;;;18.68;59.00
42001;BME280;27689;48.390;10.856;2023-04-29T13:21:33;95976.59;;;19.10;57.22
42001;BME280;27689;48.390;10.856;2023-04-29T13:24:17;95983.28;;;18.86;55.87
42001;BME280;27689;48.390;10.856;2023-04-29T13:27:03;95988.16;;;18.62;55.35
42001;BME280;27689;48.390;10.856;2023-04-29T13:29:47;95989.34;;;18.60;56.29
42001;BME280;27689;48.390;10.856;2023-04-29T13:32:31;95975.44;;;18.51;57.11
42001;BME280;27689;48.390;10.856;2023-04-29T13:35:15;95976.38;;;18.98;60.03
42001;BME280;27689;48.390;10.856;2023-04-29T13:37:59;95972.72;;;19.06;54.44
42001;BME280;27689;48.390;10.856;2023-04-29T13:40:44;95980.88;;;18.97;55.34
42001;BME280;27689;48.390;10.856;2023-04-29T13:43:29;95982.31;;;19.20;54.04
42001;BME280;27689;48.390;10.856;2023-04-29T13:46:14;95976.59;;;19.23;53.09
42001;BME280;27689;48.390;10.856;2023-04-29T13:48:58;95975.13;;;18.81;52.96
42001;BME280;27689;48.390;10.856;2023-04-29T13:51:42;95988.03;;;19.03;54.61
42001;BME280;27689;48.390;10.856;2023-04-29T13:54:37;95989.16;;;18.61;52.97
42001;BME280;27689;48.390;10.856;2023-04-29T13:57:22;95978.25;;;18.37;54.87
42001;BME280;27689;48.390;10.856;2023-04-29T14:00:09;95983.13;;;18.33;56.12
42001;BME280;27689;48.390;10.856;2023-04-29T14:03:02;95971.66;;;18.26;54.11
42001;BME280;27689;48.390;10.856;2023-04-29T14:05:46;95982.06;;;18.21;54.85
42001;BME280;27689;48.390;10.856;2023-04-29T14:08:31;95974.03;;;18.08;55.35
42001;BME280;27689;48.390;10.856;2023-04-29T14:11:15;95989.91;;;18.01;59.65
42001;BME280;27689;48.390;10.856;2023-04-29T14:13:59;96000.56;;;18.08;62.17
42001;BME280;27689;48.390;10.856;2023-04-29T14:16:44;95994.94;;;17.89;61.81
42001;BME280;27689;48.390;10.856;2023-04-29T14:19:28;95994.50;;;17.86;62.49
42001;BME280;27689;48.390;10.856;2023-04-29T14:22:12;96001.69;;;17.92;62.04
42001;BME280;27689;48.390;10.856;2023-04-29T14:24:56;95997.94;;;17.80;62.02
42001;BME280;27689;48.390;10.856;2023-04-29T14:27:40;96008.84;;;17.98;63.05
42001;BME280;27689;48.390;10.856;2023-04-29T14:30:24;96001.19;;;17.82;64.47
42001;BME280;27689;48.390;10.856;2023-04-29T14:33:08;96007.13;;;17.84;66.77
42001;BME280;27689;48.390;10.856;2023-04-29T14:35:52;96006.16;;;17.91;65.71
42001;BME280;27689;48.390;10.856;2023-04-29T14:38:36;96005.19;;;17.99;66.52